createdAt,value
2022-11-05T02:36:31.482Z,101383.81
2022-11-05T02:39:14.150Z,101377.44
2022-11-05T02:41:49.865Z,101374.53
2022-11-05T02:44:26.772Z,101367.41
2022-11-05T02:46:58.540Z,101367.59
2022-11-05T02:49:38.356Z,101374.22
2022-11-05T02:52:12.419Z,101371.94
2022-11-05T02:54:44.351Z,101373.97
2022-11-05T04:17:59.855Z,101383.50
2022-11-05T04:20:45.174Z,101390.69
2022-11-05T04:23:30.657Z,101386.88
2022-11-05T04:25:57.627Z,101395.84
2022-11-05T04:28:44.320Z,101396.66
2022-11-05T04:58:44.593Z,101388.81
2022-11-05T05:01:13.166Z,101390.63
2022-11-05T05:03:40.101Z,101395.97
2022-11-05T05:22:37.791Z,101402.63
2022-11-05T05:25:06.205Z,101399.94
2022-11-05T05:27:34.374Z,101393.09
2022-11-05T05:44:57.145Z,101393.97
2022-11-05T05:47:23.925Z,101396.25
2022-11-05T05:49:50.880Z,101398.25
2022-11-05T05:52:17.836Z,101397.88
2022-11-05T05:54:44.601Z,101394.72
2022-11-05T05:57:11.319Z,101401.84
2022-11-05T05:59:38.087Z,101388.56
2022-11-05T06:02:06.302Z,101392.75
2022-11-05T06:04:33.194Z,101396.91
2022-11-05T06:07:00.130Z,101402.66
2022-11-05T06:09:26.865Z,101394.28
2022-11-05T06:11:53.818Z,101402.84
2022-11-05T06:14:20.582Z,101409.25
2022-11-05T06:16:47.391Z,101410.53
2022-11-05T06:19:15.521Z,101416.31
2022-11-05T06:21:42.285Z,101424.09
2022-11-05T06:24:09.232Z,101425.69
2022-11-05T06:26:36.136Z,101427.03
2022-11-05T06:29:03.024Z,101429.75
2022-11-05T06:31:29.776Z,101439.56
2022-11-05T06:33:56.557Z,101437.91
2022-11-05T06:36:24.751Z,101444.66
2022-11-05T06:38:51.571Z,101447.28
2022-11-05T06:41:18.339Z,101448.19
2022-11-05T06:43:47.459Z,101448.47
2022-11-05T06:46:14.209Z,101450.47
2022-11-05T06:48:41.345Z,101444.59
2022-11-05T06:51:09.429Z,101447.66
2022-11-05T06:53:38.616Z,101441.81
2022-11-05T06:56:09.380Z,101446.84
2022-11-05T07:04:06.315Z,101450.84
2022-11-05T07:06:36.972Z,101447.78
2022-11-05T07:09:05.425Z,101452.13
2022-11-05T07:11:32.234Z,101447.13
2022-11-05T07:13:59.046Z,101455.06
2022-11-05T07:16:25.784Z,101454.41
2022-11-05T07:18:52.979Z,101449.09
2022-11-05T07:21:19.841Z,101457.34
2022-11-05T07:23:46.990Z,101446.31
2022-11-05T07:26:15.159Z,101455.84
2022-11-05T07:28:41.903Z,101452.22
2022-11-05T07:31:08.913Z,101453.38
2022-11-05T07:33:36.825Z,101456.97
2022-11-05T07:36:04.111Z,101455.75
2022-11-05T07:38:30.882Z,101452.16
2022-11-05T07:40:59.247Z,101455.97
2022-11-05T07:43:27.477Z,101453.63
2022-11-05T07:45:54.326Z,101449.03
2022-11-05T07:48:57.803Z,101449.47
2022-11-05T07:57:25.702Z,101457.25
2022-11-05T07:59:53.960Z,101454.16
2022-11-05T08:02:21.191Z,101455.19
2022-11-05T08:04:48.189Z,101454.59
2022-11-05T08:13:22.848Z,101459.94
2022-11-05T08:15:50.929Z,101455.94
2022-11-05T08:18:18.087Z,101453.97
2022-11-05T08:20:46.463Z,101454.22
2022-11-05T08:23:14.421Z,101452.25
2022-11-05T08:25:42.011Z,101452.78
2022-11-05T08:28:11.524Z,101445.88
2022-11-05T08:30:38.280Z,101448.44
2022-11-05T08:33:09.078Z,101447.19
2022-11-05T08:35:37.501Z,101448.66
2022-11-05T08:38:06.535Z,101457.31
2022-11-05T08:40:35.727Z,101457.72
2022-11-05T08:43:04.849Z,101452.34
2022-11-05T08:45:32.014Z,101452.25
2022-11-05T08:47:59.563Z,101461.72
2022-11-05T08:50:27.924Z,101459.28
2022-11-05T08:52:54.795Z,101458.22
2022-11-05T08:55:21.595Z,101454.63
2022-11-05T08:57:48.536Z,101457.06
2022-11-05T09:00:15.999Z,101456.38
2022-11-05T09:02:42.870Z,101458.53
2022-11-05T09:05:09.659Z,101461.38
2022-11-05T09:07:37.907Z,101460.88
2022-11-05T09:10:05.360Z,101465.81
2022-11-05T09:12:32.109Z,101472.19
2022-11-05T09:14:58.864Z,101465.06
2022-11-05T09:17:25.681Z,101466.78
2022-11-05T09:19:52.624Z,101462.75
2022-11-05T09:22:19.378Z,101463.13
2022-11-05T09:24:47.513Z,101461.75
2022-11-05T09:27:14.751Z,101462.13
2022-11-05T09:29:42.053Z,101456.50
2022-11-05T09:32:09.503Z,101463.00
2022-11-05T09:34:36.592Z,101467.34
2022-11-05T09:37:04.148Z,101467.34
2022-11-05T09:39:30.943Z,101463.13
2022-11-05T09:42:04.534Z,101461.47
2022-11-05T09:44:40.541Z,101464.81
2022-11-05T09:47:12.649Z,101465.41
2022-11-05T09:49:42.480Z,101469.25
2022-11-05T09:52:15.127Z,101462.13
2022-11-05T09:54:42.053Z,101466.75
2022-11-05T09:57:16.359Z,101460.25
2022-11-05T09:59:47.079Z,101462.78
2022-11-05T10:02:19.554Z,101476.63
2022-11-05T10:04:51.527Z,101472.41
2022-11-05T10:07:21.513Z,101465.56
2022-11-05T10:09:51.536Z,101455.38
2022-11-05T10:12:26.342Z,101463.94
2022-11-05T10:15:05.581Z,101468.03
2022-11-05T10:17:39.037Z,101464.34
2022-11-05T10:20:14.987Z,101467.16
2022-11-05T10:22:45.188Z,101463.88
2022-11-05T10:25:18.979Z,101464.66
2022-11-05T10:27:52.139Z,101470.91
2022-11-05T10:30:19.854Z,101468.47
2022-11-05T10:32:48.310Z,101470.47
2022-11-05T10:35:18.560Z,101470.94
2022-11-05T10:37:46.720Z,101459.44
2022-11-05T10:40:23.107Z,101459.78
2022-11-05T10:42:58.698Z,101467.53
2022-11-05T10:45:35.059Z,101458.19
2022-11-05T10:48:44.116Z,101455.06
2022-11-05T10:51:11.746Z,101452.75
2022-11-05T10:53:39.664Z,101454.53
2022-11-05T10:56:28.860Z,101456.22
2022-11-05T10:58:59.885Z,101454.72
2022-11-05T11:01:27.179Z,101455.84
2022-11-05T11:04:08.294Z,101457.19
2022-11-05T11:06:38.078Z,101460.59
2022-11-05T11:09:08.266Z,101448.09
2022-11-05T11:11:37.328Z,101452.72
2022-11-05T11:14:19.673Z,101453.81
2022-11-05T11:16:48.458Z,101447.72
2022-11-05T11:19:26.199Z,101451.34
2022-11-05T11:22:20.754Z,101452.63
2022-11-05T11:24:48.454Z,101460.25
2022-11-05T11:27:20.865Z,101452.53
2022-11-05T11:29:54.688Z,101450.38
2022-11-05T11:32:22.357Z,101445.13
2022-11-05T11:34:52.899Z,101431.97
2022-11-05T11:37:23.867Z,101430.50
2022-11-05T11:39:54.240Z,101429.94
2022-11-05T11:42:26.869Z,101423.88
2022-11-05T11:44:59.157Z,101418.22
2022-11-05T11:47:27.953Z,101411.69
2022-11-05T11:49:56.236Z,101422.88
2022-11-05T11:52:28.268Z,101418.56
2022-11-05T11:55:17.433Z,101419.88
2022-11-05T11:57:46.709Z,101414.13
2022-11-05T12:00:15.764Z,101416.09
2022-11-05T12:03:04.177Z,101414.28
2022-11-05T12:05:36.456Z,101403.75
2022-11-05T12:08:16.685Z,101408.19
2022-11-05T12:10:54.387Z,101411.25
2022-11-05T12:13:36.668Z,101411.81
2022-11-05T12:16:18.415Z,101409.13
2022-11-05T12:18:49.042Z,101418.84
2022-11-05T12:21:34.844Z,101409.00
2022-11-05T12:24:39.706Z,101408.47
2022-11-05T12:27:19.346Z,101405.34
2022-11-05T12:29:54.085Z,101400.25
2022-11-05T12:32:55.341Z,101399.88
2022-11-05T12:35:44.151Z,101396.13
2022-11-05T12:38:26.269Z,101404.34
2022-11-05T12:41:09.128Z,101411.56
2022-11-05T12:43:47.311Z,101407.97
2022-11-05T12:46:26.576Z,101396.59
2022-11-05T12:49:14.792Z,101394.13
2022-11-05T12:51:55.648Z,101385.88
2022-11-05T12:54:31.832Z,101391.47
2022-11-05T12:57:01.054Z,101388.44
2022-11-05T12:59:34.794Z,101378.88
2022-11-05T13:02:07.752Z,101377.13
2022-11-05T13:04:43.634Z,101373.09
2022-11-05T13:07:16.989Z,101374.59
2022-11-05T13:09:49.466Z,101377.13
2022-11-05T13:12:21.106Z,101367.50
2022-11-05T13:14:53.536Z,101358.91
2022-11-05T13:17:23.483Z,101354.22
2022-11-05T13:19:57.476Z,101354.38
2022-11-05T13:22:33.443Z,101361.41
2022-11-05T13:25:06.004Z,101354.38
2022-11-05T13:27:48.114Z,101359.16
2022-11-05T13:30:18.521Z,101345.22
2022-11-05T13:32:48.971Z,101340.69
2022-11-05T13:35:23.010Z,101347.31
2022-11-05T13:38:12.755Z,101347.25
2022-11-05T13:40:50.325Z,101339.44
2022-11-05T13:43:46.205Z,101346.38
2022-11-05T13:46:34.717Z,101355.22
2022-11-05T13:49:18.919Z,101348.63
2022-11-05T13:51:48.953Z,101347.53
2022-11-05T13:55:12.608Z,101340.44
2022-11-05T13:57:59.416Z,101350.19
2022-11-05T14:00:28.533Z,101354.59
2022-11-05T14:02:57.997Z,101347.47
2022-11-05T14:05:29.559Z,101347.25
2022-11-05T14:08:00.347Z,101345.16
2022-11-05T14:10:35.877Z,101341.59
2022-11-05T14:13:16.745Z,101340.03
2022-11-05T14:15:56.819Z,101336.59
2022-11-05T14:18:38.015Z,101342.09
2022-11-05T14:21:06.559Z,101340.97
2022-11-05T14:23:50.513Z,101333.19
2022-11-05T14:26:21.207Z,101327.16
2022-11-05T14:28:50.645Z,101337.41
2022-11-05T14:34:46.212Z,101334.78
2022-11-05T14:37:26.124Z,101326.75
2022-11-05T14:39:55.671Z,101327.06
2022-11-05T14:42:27.164Z,101325.63
2022-11-05T14:45:05.988Z,101329.41
2022-11-05T14:47:35.861Z,101321.66
2022-11-05T14:50:11.585Z,101320.03
2022-11-05T14:52:40.910Z,101316.69
2022-11-05T14:55:26.359Z,101319.50
2022-11-05T14:58:22.024Z,101320.03
2022-11-05T15:00:49.880Z,101326.94
2022-11-05T15:03:58.737Z,101322.84
2022-11-05T15:06:28.714Z,101328.63
2022-11-05T15:09:14.520Z,101326.34
2022-11-05T15:12:00.302Z,101322.94
2022-11-05T15:14:31.734Z,101323.25
2022-11-05T15:17:09.092Z,101322.25
2022-11-05T15:19:39.115Z,101316.66
2022-11-05T15:22:24.483Z,101313.09
2022-11-05T15:24:51.680Z,101306.13
2022-11-05T15:27:34.421Z,101309.44
2022-11-05T15:30:13.791Z,101315.47
2022-11-05T15:32:40.557Z,101313.22
2022-11-05T15:35:19.103Z,101319.81
2022-11-05T15:37:51.753Z,101318.00
2022-11-05T15:40:25.004Z,101323.88
2022-11-05T15:43:10.881Z,101310.38
2022-11-05T15:45:37.943Z,101311.56
2022-11-05T15:48:14.204Z,101308.59
2022-11-05T15:50:41.609Z,101305.50
2022-11-05T15:56:12.925Z,101305.53
2022-11-05T15:58:47.119Z,101304.41
2022-11-05T16:01:22.608Z,101310.66
2022-11-05T16:03:51.462Z,101304.22
2022-11-05T16:06:18.669Z,101299.97
2022-11-05T16:08:50.356Z,101298.00
2022-11-05T16:11:22.113Z,101287.34
2022-11-05T16:13:51.777Z,101277.97
2022-11-05T16:16:31.631Z,101283.41
2022-11-05T16:18:58.483Z,101272.00
2022-11-05T16:21:25.385Z,101266.13
2022-11-05T16:23:57.525Z,101278.81
2022-11-05T16:27:00.637Z,101278.34
2022-11-05T16:29:26.012Z,101267.47
2022-11-05T16:31:55.206Z,101265.97
2022-11-05T16:34:26.989Z,101265.34
2022-11-05T16:36:55.810Z,101271.41
2022-11-05T16:39:22.560Z,101272.75
2022-11-05T16:41:49.509Z,101266.69
2022-11-05T16:44:16.263Z,101263.53
2022-11-05T16:46:47.542Z,101248.25
2022-11-05T16:49:14.721Z,101246.63
2022-11-05T16:51:42.196Z,101242.53
2022-11-05T16:54:09.333Z,101249.63
2022-11-05T16:56:36.737Z,101252.78
2022-11-05T16:59:04.276Z,101245.34
2022-11-05T17:01:31.674Z,101246.50
2022-11-05T17:04:00.103Z,101258.00
2022-11-05T17:06:26.888Z,101257.47
2022-11-05T17:08:53.629Z,101255.72
2022-11-05T17:11:21.416Z,101250.25
2022-11-05T17:13:48.232Z,101250.59
2022-11-05T17:16:17.197Z,101262.28
2022-11-05T17:18:44.221Z,101258.00
2022-11-05T17:21:14.098Z,101269.50
2022-11-05T17:23:40.957Z,101269.53
2022-11-05T17:26:11.809Z,101269.69
2022-11-05T17:28:40.741Z,101275.78
2022-11-05T17:31:09.858Z,101289.09
2022-11-05T17:33:37.117Z,101283.16
2022-11-05T17:36:06.292Z,101288.44
2022-11-05T17:38:35.066Z,101293.22
2022-11-05T17:41:02.428Z,101305.50
2022-11-05T17:43:29.192Z,101306.19
2022-11-05T17:45:59.979Z,101312.13
2022-11-05T17:48:29.952Z,101323.31
2022-11-05T17:50:57.066Z,101328.69
2022-11-05T17:53:23.981Z,101343.00
2022-11-05T17:55:52.222Z,101343.69
2022-11-05T17:58:18.997Z,101341.53
2022-11-05T18:00:47.015Z,101345.16
2022-11-05T18:03:14.774Z,101340.75
2022-11-05T18:05:42.160Z,101339.75
2022-11-05T18:08:09.388Z,101330.66
2022-11-05T18:10:37.714Z,101330.19
2022-11-05T18:13:06.786Z,101327.06
2022-11-05T18:15:35.581Z,101318.00
2022-11-05T18:18:02.768Z,101303.22
2022-11-05T18:20:29.806Z,101273.28
2022-11-05T18:22:56.576Z,101257.63
2022-11-05T18:25:23.386Z,101257.97
2022-11-05T18:27:50.363Z,101262.72
2022-11-05T18:30:18.825Z,101265.69
2022-11-05T18:32:45.988Z,101257.47
2022-11-05T18:35:13.524Z,101257.66
2022-11-05T18:37:40.866Z,101247.97
2022-11-05T18:40:10.191Z,101251.56
2022-11-05T18:42:37.334Z,101241.38
2022-11-05T18:45:04.568Z,101245.00
2022-11-05T18:47:33.666Z,101242.22
2022-11-05T18:50:01.034Z,101260.63
2022-11-05T18:52:31.465Z,101248.47
2022-11-05T18:54:58.832Z,101239.88
2022-11-05T18:57:25.929Z,101248.63
2022-11-05T18:59:52.719Z,101240.53
2022-11-05T19:02:19.587Z,101233.47
2022-11-05T19:05:13.831Z,101249.97
2022-11-05T19:07:36.300Z,101241.56
2022-11-05T19:10:03.258Z,101247.16
2022-11-05T19:12:30.102Z,101249.63
2022-11-05T19:15:02.107Z,101242.75
2022-11-05T19:17:30.806Z,101236.19
2022-11-05T19:19:58.985Z,101237.53
2022-11-05T19:22:26.048Z,101241.81
2022-11-05T19:24:53.169Z,101233.13
2022-11-05T19:27:20.089Z,101241.28
2022-11-05T19:29:47.557Z,101249.00
2022-11-05T19:32:14.372Z,101256.75
2022-11-05T19:34:41.176Z,101243.28
2022-11-05T19:37:09.779Z,101243.63
2022-11-05T19:39:36.737Z,101247.75
2022-11-05T19:42:04.713Z,101243.28
2022-11-05T19:44:31.856Z,101240.84
2022-11-05T19:46:58.782Z,101246.88
2022-11-05T19:49:28.055Z,101256.22
2022-11-05T19:51:55.155Z,101242.41
2022-11-05T19:54:23.255Z,101247.00
2022-11-05T19:56:50.880Z,101246.81
2022-11-05T19:59:18.007Z,101246.00
2022-11-05T20:01:45.095Z,101246.66
2022-11-05T20:04:12.112Z,101240.22
2022-11-05T20:06:40.714Z,101236.44
2022-11-05T20:09:25.549Z,101227.25
2022-11-05T20:11:56.270Z,101226.56
2022-11-05T20:14:25.118Z,101234.00
2022-11-05T20:16:52.458Z,101224.94
2022-11-05T20:19:21.554Z,101230.69
2022-11-05T20:21:48.854Z,101233.84
2022-11-05T20:24:23.805Z,101223.47
2022-11-05T20:26:54.376Z,101228.59
2022-11-05T20:29:22.061Z,101229.41
2022-11-05T20:31:49.269Z,101225.47
2022-11-05T20:34:16.146Z,101233.00
2022-11-05T20:36:43.002Z,101232.19
2022-11-05T20:39:11.973Z,101229.91
2022-11-05T20:41:38.809Z,101230.91
2022-11-05T20:44:07.078Z,101228.94
2022-11-05T20:46:33.951Z,101231.38
2022-11-05T20:49:00.806Z,101227.41
2022-11-05T20:51:27.624Z,101224.63
2022-11-05T20:53:55.763Z,101228.38
2022-11-05T20:56:24.220Z,101222.94
2022-11-05T20:58:51.444Z,101219.63
2022-11-05T21:01:20.511Z,101214.53
2022-11-05T21:03:47.923Z,101219.19
2022-11-05T21:06:15.608Z,101221.66
2022-11-05T21:08:42.703Z,101224.94
2022-11-05T21:11:10.618Z,101218.53
2022-11-05T21:13:38.068Z,101217.22
2022-11-05T21:16:07.418Z,101217.56
2022-11-05T21:18:39.063Z,101209.38
2022-11-05T21:21:07.043Z,101214.50
2022-11-05T21:23:34.229Z,101211.91
2022-11-05T21:26:03.837Z,101200.91
2022-11-05T21:28:30.654Z,101207.34
2022-11-05T21:31:00.763Z,101203.56
2022-11-05T21:33:27.864Z,101201.59
2022-11-05T21:35:56.483Z,101205.84
2022-11-05T21:38:23.892Z,101211.91
2022-11-05T21:40:50.727Z,101211.22
2022-11-05T21:43:17.857Z,101222.06
2022-11-05T21:45:45.467Z,101222.69
2022-11-05T21:48:15.022Z,101223.00
2022-11-05T21:51:01.237Z,101222.84
2022-11-05T21:53:47.732Z,101212.97
2022-11-05T21:56:37.476Z,101211.28
2022-11-05T21:59:23.664Z,101196.81
2022-11-05T22:01:50.938Z,101200.75
2022-11-05T22:04:17.767Z,101190.53
2022-11-05T22:06:44.554Z,101191.25
2022-11-05T22:09:12.630Z,101185.63
2022-11-05T22:11:39.399Z,101176.69
2022-11-05T22:14:06.140Z,101184.63
2022-11-05T22:16:32.951Z,101177.50
2022-11-05T22:18:59.893Z,101177.03
2022-11-05T22:21:26.625Z,101159.91
2022-11-05T22:23:53.810Z,101164.03
2022-11-05T22:26:21.988Z,101164.84
2022-11-05T22:28:48.926Z,101155.13
2022-11-05T22:31:16.987Z,101163.28
2022-11-05T22:33:44.123Z,101154.81
2022-11-05T22:36:11.959Z,101158.25
2022-11-05T22:38:39.578Z,101149.75
2022-11-05T22:41:10.928Z,101165.59
2022-11-05T22:43:39.546Z,101164.25
2022-11-05T22:46:08.656Z,101165.47
2022-11-05T22:48:36.706Z,101155.28
2022-11-05T22:51:04.396Z,101154.59
2022-11-05T22:53:31.143Z,101153.59
2022-11-05T22:55:58.375Z,101151.75
2022-11-05T22:58:25.128Z,101150.31
2022-11-05T23:00:53.343Z,101143.63
2022-11-05T23:03:20.382Z,101141.28
2022-11-05T23:05:47.113Z,101138.16
2022-11-05T23:08:32.206Z,101146.06
2022-11-05T23:11:28.307Z,101131.59
2022-11-05T23:13:55.841Z,101135.06
2022-11-05T23:16:42.269Z,101110.69
2022-11-05T23:19:28.332Z,101120.84
2022-11-05T23:22:13.430Z,101125.88
2022-11-05T23:24:40.278Z,101131.19
2022-11-05T23:27:07.463Z,101129.69
2022-11-05T23:29:34.536Z,101122.44
2022-11-05T23:32:20.860Z,101113.69
2022-11-05T23:34:47.611Z,101110.88
2022-11-05T23:37:33.267Z,101113.81
2022-11-05T23:40:00.057Z,101116.06
2022-11-05T23:42:45.762Z,101101.00
2022-11-05T23:45:31.832Z,101096.28
2022-11-05T23:48:18.274Z,101100.03
2022-11-05T23:50:48.230Z,101101.34
2022-11-05T23:53:15.323Z,101087.41
2022-11-05T23:55:42.513Z,101097.66
2022-11-05T23:58:09.728Z,101101.06
